Etusivu
METAR-TAF:

METAR-TAF

Lentoasemat :

Pontoise, Ranska

Leveyspiiri: 49-05-48N, Pituuspiiri: 002-02-27E, korkeus merenpinnasta: 99 m

Tämänhetkinen sää

Tämä raportti tehtiin 15 minuuttia sitten, kello 05.30 UTC
Tuuli 11 kn lännestä/lounaasta
Lämpötila 4°C
Kosteus 87%
Ilmanpaine 1010 hPa
Näkyvyys 10 km tai enemmän

METAR: LFPT 290530Z AUTO 24011KT 9999 FEW026/// SCT049/// BKN140/// ///TCU 04/02 Q1010

Aika: 06:45 (05:45 UTC)


TAF: puuttuu

Säähavainnot ja -ennusteet yli 4000 lentoasemalta (METAR- ja TAF-raportit).

Käytössä olevat sääasemat on merkitty karttaan keltaisilla ja punaisilla pisteillä.

Aseta hiiri pisteen päälle nähdäksesi sääaseman nimen.

Klikkaa sitten nähdäksesi säähavainnot ja -ennusteet.

Kartan vaihtaminen: klikkaa mustalla rastilla varustettuja vihreitä pisteitä, niin voit zoomata sisään; viivalla varustettua vihreää pistettä, niin voit zoomata ulos tai vihreitä nuolia, niin pääset viereisille kartoille.


METAR-TAF: